createdAt,value
2017-11-10T00:01:18.153Z,7.50
2017-11-10T00:03:21.573Z,7.40
2017-11-10T00:05:24.246Z,7.40
2017-11-10T00:07:26.930Z,7.40
2017-11-10T00:09:29.710Z,7.50
2017-11-10T00:11:32.489Z,7.40
2017-11-10T00:13:35.185Z,7.50
2017-11-10T00:15:37.835Z,7.50
2017-11-10T00:17:46.524Z,7.40
2017-11-10T00:19:49.985Z,7.40
2017-11-10T00:21:52.648Z,7.40
2017-11-10T00:23:55.342Z,7.40
2017-11-10T00:25:58.028Z,7.50
2017-11-10T00:28:00.673Z,7.50
2017-11-10T00:30:03.351Z,7.50
2017-11-10T00:32:06.044Z,7.50
2017-11-10T00:34:08.697Z,7.50
2017-11-10T00:36:11.385Z,7.50
2017-11-10T00:38:14.099Z,7.50
2017-11-10T00:40:16.739Z,7.50
2017-11-10T00:42:19.392Z,7.50
2017-11-10T00:44:22.075Z,7.50
2017-11-10T00:46:24.746Z,7.50
2017-11-10T00:48:27.411Z,7.50
2017-11-10T00:50:30.113Z,7.50
2017-11-10T00:52:32.994Z,7.50
2017-11-10T00:54:35.649Z,7.50
2017-11-10T00:56:38.344Z,7.50
2017-11-10T00:58:40.998Z,7.50
2017-11-10T01:00:43.700Z,7.50
2017-11-10T01:02:46.481Z,7.50
2017-11-10T01:04:49.133Z,7.50
2017-11-10T01:06:51.790Z,7.50
2017-11-10T01:08:54.477Z,7.50
2017-11-10T01:10:57.285Z,7.60
2017-11-10T01:12:59.939Z,7.60
2017-11-10T01:15:02.643Z,7.50
2017-11-10T01:17:05.309Z,7.50
2017-11-10T01:19:07.959Z,7.60
2017-11-10T01:21:13.493Z,7.60
2017-11-10T01:23:16.160Z,7.50
2017-11-10T01:25:19.600Z,7.60
2017-11-10T01:27:22.268Z,7.60
2017-11-10T01:29:24.911Z,7.60
2017-11-10T01:31:27.611Z,7.60
2017-11-10T01:33:30.293Z,7.60
2017-11-10T01:35:32.956Z,7.60
2017-11-10T01:37:35.638Z,7.60
2017-11-10T01:39:38.303Z,7.60
2017-11-10T01:41:40.968Z,7.60
2017-11-10T01:43:43.650Z,7.50
2017-11-10T01:45:46.331Z,7.60
2017-11-10T01:47:49.013Z,7.50
2017-11-10T01:49:54.583Z,7.50
2017-11-10T01:51:57.245Z,7.50
2017-11-10T01:53:59.912Z,7.60
2017-11-10T01:56:02.622Z,7.50
2017-11-10T01:58:05.288Z,7.60
2017-11-10T02:00:07.990Z,7.60
2017-11-10T02:02:10.709Z,7.60
2017-11-10T02:04:13.394Z,7.60
2017-11-10T02:06:16.050Z,7.60
2017-11-10T02:08:18.722Z,7.60
2017-11-10T02:10:22.147Z,7.60
2017-11-10T02:12:24.801Z,7.60
2017-11-10T02:14:27.504Z,7.60
2017-11-10T02:16:30.187Z,7.60
2017-11-10T02:18:32.878Z,7.60
2017-11-10T02:20:35.598Z,7.60
2017-11-10T02:22:39.043Z,7.60
2017-11-10T02:24:41.734Z,7.60
2017-11-10T02:26:44.487Z,7.60
2017-11-10T02:28:47.186Z,7.70
2017-11-10T02:30:49.953Z,7.60
2017-11-10T02:32:52.694Z,7.60
2017-11-10T02:34:56.381Z,7.60
2017-11-10T02:36:59.074Z,7.70
2017-11-10T02:39:01.787Z,7.70
2017-11-10T02:41:04.454Z,7.70
2017-11-10T02:43:07.149Z,7.70
2017-11-10T02:45:12.712Z,7.70
2017-11-10T02:47:16.168Z,7.70
2017-11-10T02:49:18.849Z,7.70
2017-11-10T02:51:21.538Z,7.70
2017-11-10T02:53:24.248Z,7.70
2017-11-10T02:55:27.695Z,7.70
2017-11-10T02:57:30.405Z,7.70
2017-11-10T02:59:33.954Z,7.70
2017-11-10T03:01:36.631Z,7.70
2017-11-10T03:03:39.325Z,7.70
2017-11-10T03:05:42.088Z,7.70
2017-11-10T03:07:44.763Z,7.70
2017-11-10T03:09:47.439Z,7.70
2017-11-10T03:11:50.140Z,7.70
2017-11-10T03:13:52.845Z,7.70
2017-11-10T03:15:56.360Z,7.70
2017-11-10T03:17:59.051Z,7.70
2017-11-10T03:20:01.732Z,7.70
2017-11-10T03:22:04.455Z,7.80
2017-11-10T03:24:07.181Z,7.70
2017-11-10T03:26:09.834Z,7.70
2017-11-10T03:28:13.306Z,7.70
2017-11-10T03:30:15.991Z,7.70
2017-11-10T03:32:19.448Z,7.70
2017-11-10T03:34:22.160Z,7.70
2017-11-10T03:36:25.614Z,7.70
2017-11-10T03:38:28.373Z,7.70
2017-11-10T03:40:31.050Z,7.70
2017-11-10T03:42:33.706Z,7.70
2017-11-10T03:44:36.386Z,7.70
2017-11-10T03:46:39.098Z,7.70
2017-11-10T03:48:41.852Z,7.70
2017-11-10T03:50:44.503Z,7.70
2017-11-10T03:52:47.220Z,7.80
2017-11-10T03:54:49.897Z,7.80
2017-11-10T03:56:52.589Z,7.80
2017-11-10T03:58:55.289Z,7.80
2017-11-10T04:00:57.981Z,7.80
2017-11-10T04:03:01.445Z,7.80
2017-11-10T04:05:04.168Z,7.80
2017-11-10T04:07:06.907Z,7.80
2017-11-10T04:09:09.584Z,7.80
2017-11-10T04:11:12.282Z,7.80
2017-11-10T04:13:15.920Z,7.80
2017-11-10T04:15:18.646Z,7.80
2017-11-10T04:17:21.785Z,7.80
2017-11-10T04:19:24.476Z,7.80
2017-11-10T04:21:27.302Z,7.80
2017-11-10T04:23:30.754Z,7.80
2017-11-10T04:25:33.442Z,7.80
2017-11-10T04:27:36.153Z,7.80
2017-11-10T04:29:39.797Z,7.80
2017-11-10T04:31:42.459Z,7.80
2017-11-10T04:33:45.187Z,7.80
2017-11-10T04:35:48.031Z,7.80
2017-11-10T04:37:50.690Z,7.80
2017-11-10T04:39:53.411Z,7.80
2017-11-10T04:41:56.092Z,7.80
2017-11-10T04:43:58.770Z,7.80
2017-11-10T04:46:01.475Z,7.80
2017-11-10T04:48:04.913Z,7.80
2017-11-10T04:52:16.902Z,7.80
2017-11-10T04:54:19.606Z,7.80
2017-11-10T04:56:22.288Z,7.80
2017-11-10T04:58:25.027Z,7.80
2017-11-10T05:00:27.757Z,7.80
2017-11-10T05:02:30.406Z,7.80
2017-11-10T05:04:33.151Z,7.80
2017-11-10T05:06:35.842Z,7.80
2017-11-10T05:08:38.543Z,7.80
2017-11-10T05:10:41.263Z,7.80
2017-11-10T05:12:44.710Z,7.80
2017-11-10T05:14:47.415Z,7.80
2017-11-10T05:16:50.887Z,7.80
2017-11-10T05:18:53.670Z,7.80
2017-11-10T05:21:07.456Z,7.90
2017-11-10T05:23:10.178Z,7.90
2017-11-10T05:25:12.869Z,7.90
2017-11-10T05:27:15.557Z,7.90
2017-11-10T05:29:18.253Z,7.90
2017-11-10T05:31:21.701Z,7.90
2017-11-10T05:33:24.407Z,7.90
2017-11-10T05:35:27.132Z,7.90
2017-11-10T05:37:29.857Z,7.90
2017-11-10T05:39:32.541Z,7.90
2017-11-10T05:41:36.433Z,7.90
2017-11-10T05:43:39.202Z,7.90
2017-11-10T05:45:41.993Z,7.90
2017-11-10T05:47:46.470Z,7.90
2017-11-10T05:49:49.235Z,7.90
2017-11-10T05:51:51.927Z,7.90
2017-11-10T05:53:54.659Z,7.90
2017-11-10T05:55:58.084Z,8.00
2017-11-10T05:58:00.739Z,8.00
2017-11-10T06:00:04.254Z,7.90
2017-11-10T06:02:06.986Z,7.90
2017-11-10T06:04:11.782Z,8.00
2017-11-10T06:06:14.516Z,8.00
2017-11-10T06:08:18.045Z,8.00
2017-11-10T06:10:20.817Z,8.00
2017-11-10T06:12:23.738Z,8.00
2017-11-10T06:14:26.413Z,8.00
2017-11-10T06:16:29.085Z,8.10
2017-11-10T06:18:31.778Z,8.00
2017-11-10T06:20:34.430Z,8.00
2017-11-10T06:22:37.132Z,8.00
2017-11-10T06:24:39.869Z,8.10
2017-11-10T06:26:42.531Z,8.10
2017-11-10T06:28:45.229Z,8.10
2017-11-10T06:30:48.965Z,8.10
2017-11-10T06:32:51.648Z,8.10
2017-11-10T06:34:55.135Z,8.10
2017-11-10T06:36:57.883Z,8.10
2017-11-10T06:39:00.639Z,8.10
2017-11-10T06:41:03.323Z,8.00
2017-11-10T06:43:06.192Z,8.00
2017-11-10T06:45:08.883Z,8.00
2017-11-10T06:47:11.575Z,8.00
2017-11-10T06:49:14.255Z,8.00
2017-11-10T06:51:16.919Z,8.00
2017-11-10T06:53:19.572Z,8.00
2017-11-10T06:55:22.305Z,8.00
2017-11-10T06:57:24.992Z,8.00
2017-11-10T06:59:28.417Z,8.00
2017-11-10T07:01:31.253Z,8.00
2017-11-10T07:03:33.990Z,8.00
2017-11-10T07:05:36.800Z,8.00
2017-11-10T07:07:39.481Z,8.10
2017-11-10T07:09:42.144Z,8.10
2017-11-10T07:11:44.838Z,8.10
2017-11-10T07:13:48.322Z,8.10
2017-11-10T07:15:50.978Z,8.10
2017-11-10T07:17:53.734Z,8.10
2017-11-10T07:19:56.415Z,8.10
2017-11-10T07:21:59.197Z,8.10
2017-11-10T07:24:01.888Z,8.20
2017-11-10T07:26:04.639Z,8.20
2017-11-10T07:28:07.321Z,8.20
2017-11-10T07:30:10.013Z,8.20
2017-11-10T07:32:12.670Z,8.20
2017-11-10T07:34:15.573Z,8.20
2017-11-10T07:36:18.343Z,8.30
2017-11-10T07:38:21.112Z,8.30
2017-11-10T07:40:23.810Z,8.30
2017-11-10T07:42:26.482Z,8.30
2017-11-10T07:44:29.141Z,8.30
2017-11-10T07:46:31.832Z,8.30
2017-11-10T07:48:34.490Z,8.30
2017-11-10T07:50:37.154Z,8.30
2017-11-10T07:52:39.845Z,8.30
2017-11-10T07:54:42.533Z,8.30
2017-11-10T07:56:45.211Z,8.40
2017-11-10T07:58:47.908Z,8.40
2017-11-10T08:00:50.985Z,8.40
2017-11-10T08:02:55.345Z,8.40
2017-11-10T08:04:58.796Z,8.40
2017-11-10T08:07:01.454Z,8.40
2017-11-10T08:09:04.219Z,8.40
2017-11-10T08:11:06.994Z,8.40
2017-11-10T08:13:10.034Z,8.40
2017-11-10T08:15:13.494Z,8.40
2017-11-10T08:17:16.141Z,8.40
2017-11-10T08:19:18.833Z,8.40
2017-11-10T08:21:21.592Z,8.40
2017-11-10T08:23:24.421Z,8.50
2017-11-10T08:25:27.092Z,8.50
2017-11-10T08:27:29.813Z,8.50
2017-11-10T08:29:33.296Z,8.60
2017-11-10T08:31:36.802Z,8.60
2017-11-10T08:33:40.265Z,8.60
2017-11-10T08:35:43.022Z,8.60
2017-11-10T08:37:45.786Z,8.60
2017-11-10T08:39:48.669Z,8.70
2017-11-10T08:41:51.408Z,8.70
2017-11-10T08:43:54.822Z,8.80
2017-11-10T08:45:57.564Z,8.70
2017-11-10T08:48:00.224Z,8.80
2017-11-10T08:50:02.886Z,8.90
2017-11-10T08:52:05.583Z,8.90
2017-11-10T08:54:08.249Z,9.00
2017-11-10T08:56:10.905Z,9.00
2017-11-10T08:58:13.613Z,9.00
2017-11-10T09:00:16.276Z,9.00
2017-11-10T09:02:18.946Z,9.00
2017-11-10T09:04:21.642Z,9.00
2017-11-10T09:06:24.294Z,9.00
2017-11-10T09:08:26.995Z,9.00
2017-11-10T09:10:29.755Z,8.90
2017-11-10T09:12:32.632Z,9.00
2017-11-10T09:14:35.320Z,9.00
2017-11-10T09:16:38.047Z,9.00
2017-11-10T09:18:40.710Z,9.10
2017-11-10T09:20:43.428Z,9.10
2017-11-10T09:22:46.168Z,9.20
2017-11-10T09:24:50.285Z,9.20
2017-11-10T09:26:53.046Z,9.20
2017-11-10T09:29:01.565Z,9.20
2017-11-10T09:44:37.209Z,10.00
2017-11-10T09:46:45.498Z,10.00
2017-11-10T09:48:54.557Z,10.30
2017-11-10T09:51:03.060Z,10.20
2017-11-10T09:53:11.429Z,10.30
2017-11-10T09:58:03.640Z,10.60
2017-11-10T10:00:09.152Z,10.60
2017-11-10T10:02:29.330Z,10.40
2017-11-10T10:04:34.512Z,10.40
2017-11-10T10:09:21.984Z,10.50
2017-11-10T10:11:27.360Z,10.50
2017-11-10T10:13:46.941Z,10.50
2017-11-10T10:15:55.206Z,10.60
2017-11-10T10:20:39.878Z,10.70
2017-11-10T10:22:43.212Z,10.60
2017-11-10T10:24:45.906Z,10.50
2017-11-10T10:26:48.614Z,10.50
2017-11-10T10:28:51.280Z,10.50
2017-11-10T10:30:53.971Z,10.40
2017-11-10T10:32:56.631Z,10.20
2017-11-10T10:34:59.490Z,10.20
2017-11-10T10:37:02.248Z,10.10
2017-11-10T10:39:04.956Z,10.10
2017-11-10T10:41:07.679Z,10.10
2017-11-10T10:43:11.126Z,10.30
2017-11-10T10:45:13.846Z,10.20
2017-11-10T10:47:17.315Z,10.30
2017-11-10T10:49:19.990Z,10.30
2017-11-10T10:51:22.666Z,10.20
2017-11-10T10:53:25.385Z,10.20
2017-11-10T10:55:28.880Z,10.00
2017-11-10T10:57:31.730Z,10.00
2017-11-10T10:59:34.467Z,10.10
2017-11-10T11:01:37.138Z,10.20
2017-11-10T11:03:39.830Z,10.20
2017-11-10T11:05:42.512Z,10.10
2017-11-10T11:07:45.204Z,10.10
2017-11-10T11:09:47.972Z,10.00
2017-11-10T11:11:50.659Z,10.10
2017-11-10T11:13:53.432Z,10.00
2017-11-10T11:15:56.163Z,10.00
2017-11-10T11:17:58.843Z,10.00
2017-11-10T11:20:01.592Z,10.00
2017-11-10T11:22:04.291Z,10.00
2017-11-10T11:24:07.776Z,9.90
2017-11-10T11:26:11.209Z,9.80
2017-11-10T11:28:13.886Z,9.80
2017-11-10T11:30:16.570Z,9.70
2017-11-10T11:32:19.259Z,9.70
2017-11-10T11:34:21.963Z,9.60
2017-11-10T11:36:24.678Z,9.50
2017-11-10T11:38:27.785Z,9.50
2017-11-10T11:40:30.584Z,9.40
2017-11-10T11:42:33.266Z,9.40
2017-11-10T11:44:36.095Z,9.40
2017-11-10T11:46:38.790Z,9.40
2017-11-10T11:48:41.487Z,9.30
2017-11-10T11:50:45.195Z,9.30
2017-11-10T11:52:47.917Z,9.30
2017-11-10T11:54:50.638Z,9.30
2017-11-10T11:56:53.334Z,9.30
2017-11-10T11:58:56.024Z,9.40
2017-11-10T12:00:59.565Z,9.60
2017-11-10T12:03:03.019Z,9.60
2017-11-10T12:05:06.555Z,9.70
2017-11-10T12:07:09.433Z,9.70
2017-11-10T12:09:12.159Z,9.70
2017-11-10T12:11:14.913Z,9.70
2017-11-10T12:13:17.575Z,9.60
2017-11-10T12:15:20.286Z,9.60
2017-11-10T12:17:23.181Z,9.70
2017-11-10T12:19:25.855Z,9.80
2017-11-10T12:21:28.568Z,10.00
2017-11-10T12:23:31.307Z,10.10
2017-11-10T12:25:34.011Z,10.00
2017-11-10T12:27:36.710Z,10.10
2017-11-10T12:29:39.433Z,10.20
2017-11-10T12:31:42.151Z,10.30
2017-11-10T12:33:44.941Z,10.30
2017-11-10T12:35:47.823Z,10.30
2017-11-10T12:37:50.511Z,10.30
2017-11-10T12:39:53.196Z,10.40
2017-11-10T12:41:55.941Z,10.40
2017-11-10T12:43:58.653Z,10.60
2017-11-10T12:46:01.338Z,10.70
2017-11-10T12:48:04.046Z,10.80
2017-11-10T12:50:07.604Z,10.70
2017-11-10T12:52:10.302Z,10.70
2017-11-10T12:54:13.930Z,10.60
2017-11-10T12:56:17.692Z,10.50
2017-11-10T12:58:20.385Z,10.50
2017-11-10T13:00:23.119Z,10.40
2017-11-10T13:02:25.772Z,10.20
2017-11-10T13:04:28.486Z,10.10
2017-11-10T13:06:31.172Z,10.10
2017-11-10T13:08:33.854Z,10.30
2017-11-10T13:10:36.598Z,10.50
2017-11-10T13:12:39.286Z,10.60
2017-11-10T13:14:42.254Z,10.70
2017-11-10T13:16:44.954Z,10.70
2017-11-10T13:18:47.637Z,10.70
2017-11-10T13:20:50.520Z,10.90
2017-11-10T13:22:53.243Z,11.00
2017-11-10T13:24:56.680Z,10.80
2017-11-10T13:26:59.459Z,10.80
2017-11-10T13:29:02.130Z,10.70
2017-11-10T13:31:04.782Z,10.60
2017-11-10T13:33:07.559Z,10.60
2017-11-10T13:35:10.251Z,10.60
2017-11-10T13:37:12.923Z,10.90
2017-11-10T13:39:15.656Z,11.10
2017-11-10T13:41:19.129Z,11.50
2017-11-10T13:43:21.787Z,11.50
2017-11-10T13:45:24.523Z,11.50
2017-11-10T13:47:27.942Z,11.30
2017-11-10T13:49:30.618Z,11.30
2017-11-10T13:51:33.304Z,11.10
2017-11-10T13:53:35.972Z,11.00
2017-11-10T13:55:38.656Z,10.90
2017-11-10T13:57:41.311Z,10.70
2017-11-10T13:59:43.997Z,10.60
2017-11-10T14:01:46.709Z,10.50
2017-11-10T14:03:49.504Z,10.50
2017-11-10T14:05:52.968Z,10.50
2017-11-10T14:07:55.645Z,10.50
2017-11-10T14:09:58.303Z,10.50
2017-11-10T14:12:01.036Z,10.40
2017-11-10T14:14:04.581Z,10.40
2017-11-10T14:16:07.279Z,10.40
2017-11-10T14:18:10.069Z,10.40
2017-11-10T14:20:12.757Z,10.50
2017-11-10T14:22:15.454Z,10.50
2017-11-10T14:24:18.899Z,10.40
2017-11-10T14:26:22.320Z,10.40
2017-11-10T14:28:24.996Z,10.30
2017-11-10T14:30:27.649Z,10.30
2017-11-10T14:32:30.304Z,10.20
2017-11-10T14:34:33.038Z,10.20
2017-11-10T14:36:36.481Z,10.10
2017-11-10T14:38:39.148Z,10.10
2017-11-10T14:40:41.875Z,10.10
2017-11-10T14:42:44.588Z,10.10
2017-11-10T14:44:48.275Z,10.00
2017-11-10T14:46:51.722Z,9.90
2017-11-10T14:48:54.381Z,9.90
2017-11-10T14:50:57.058Z,10.00
2017-11-10T14:52:59.921Z,10.00
2017-11-10T14:55:02.607Z,9.90
2017-11-10T14:57:05.281Z,9.70
2017-11-10T14:59:07.935Z,9.70
2017-11-10T15:01:10.587Z,9.70
2017-11-10T15:03:14.038Z,9.60
2017-11-10T15:05:17.312Z,9.60
2017-11-10T15:07:19.999Z,9.70
2017-11-10T15:09:22.692Z,9.40
2017-11-10T15:11:25.373Z,9.40
2017-11-10T15:13:28.221Z,9.30
2017-11-10T15:15:31.690Z,9.20
2017-11-10T15:17:35.107Z,9.10
2017-11-10T15:19:37.798Z,9.10
2017-11-10T15:21:40.607Z,9.10
2017-11-10T15:23:43.292Z,9.30
2017-11-10T15:25:46.110Z,9.30
2017-11-10T15:27:48.925Z,9.20
2017-11-10T15:29:51.588Z,9.10
2017-11-10T15:31:54.336Z,8.90
2017-11-10T15:33:57.025Z,8.80
2017-11-10T15:35:59.806Z,8.70
2017-11-10T15:38:02.523Z,8.60
2017-11-10T15:40:05.365Z,8.60
2017-11-10T15:42:08.145Z,8.60
2017-11-10T15:44:10.984Z,8.60
2017-11-10T15:46:14.541Z,8.40
2017-11-10T15:48:17.307Z,8.30
2017-11-10T15:50:20.005Z,8.30
2017-11-10T15:52:22.688Z,8.20
2017-11-10T15:54:25.674Z,8.10
2017-11-10T15:56:29.330Z,8.00
2017-11-10T15:58:31.990Z,8.00
2017-11-10T16:00:34.667Z,7.90
2017-11-10T16:02:37.368Z,7.90
2017-11-10T16:04:40.042Z,8.00
2017-11-10T16:06:42.951Z,8.30
2017-11-10T16:08:45.613Z,8.20
2017-11-10T16:10:48.378Z,8.20
2017-11-10T16:12:51.148Z,8.20
2017-11-10T16:14:53.822Z,8.10
2017-11-10T16:16:56.470Z,8.10
2017-11-10T16:18:59.923Z,8.10
2017-11-10T16:21:02.650Z,8.10
2017-11-10T16:23:06.082Z,8.00
2017-11-10T16:25:08.911Z,8.00
2017-11-10T16:27:12.355Z,7.90
2017-11-10T16:29:15.024Z,7.90
2017-11-10T16:31:17.717Z,7.90
2017-11-10T16:33:20.363Z,7.90
2017-11-10T16:35:23.058Z,7.80
2017-11-10T16:37:25.929Z,7.70
2017-11-10T16:39:28.718Z,7.80
2017-11-10T16:41:31.482Z,7.70
2017-11-10T16:43:34.208Z,7.70
2017-11-10T16:45:36.877Z,7.60
2017-11-10T16:47:39.532Z,7.50
2017-11-10T16:49:42.205Z,7.70
2017-11-10T16:51:44.854Z,7.70
2017-11-10T16:53:47.513Z,7.70
2017-11-10T16:55:50.991Z,7.60
2017-11-10T16:57:53.764Z,7.60
2017-11-10T16:59:56.437Z,7.60
2017-11-10T17:01:59.493Z,7.60
2017-11-10T17:04:02.351Z,7.60
2017-11-10T17:06:05.031Z,7.40
2017-11-10T17:08:07.912Z,7.40
2017-11-10T17:10:10.609Z,7.40
2017-11-10T17:12:13.367Z,7.40
2017-11-10T17:14:16.043Z,7.30
2017-11-10T17:16:19.300Z,7.20
2017-11-10T17:18:22.734Z,7.20
2017-11-10T17:20:25.466Z,7.20
2017-11-10T17:22:28.879Z,7.20
2017-11-10T17:24:31.568Z,7.10
2017-11-10T17:26:34.273Z,7.10
2017-11-10T17:28:36.953Z,7.20
2017-11-10T17:30:39.761Z,7.20
2017-11-10T17:32:42.797Z,7.20
2017-11-10T17:34:45.598Z,7.10
2017-11-10T17:36:48.375Z,7.10
2017-11-10T17:38:51.331Z,7.00
2017-11-10T17:40:54.018Z,6.90
2017-11-10T17:42:56.688Z,6.90
2017-11-10T17:44:59.455Z,6.80
2017-11-10T17:47:02.141Z,6.80
2017-11-10T17:49:04.846Z,6.70
2017-11-10T17:51:07.543Z,6.60
2017-11-10T17:53:10.264Z,6.60
2017-11-10T17:55:12.988Z,6.60
2017-11-10T17:57:15.820Z,6.50
2017-11-10T17:59:18.487Z,6.50
2017-11-10T18:01:21.171Z,6.40
2017-11-10T18:03:23.980Z,6.40
2017-11-10T18:05:26.640Z,6.40
2017-11-10T18:07:29.339Z,6.40
2017-11-10T18:09:32.151Z,6.40
2017-11-10T18:13:44.681Z,6.50
2017-11-10T18:15:48.163Z,6.50
2017-11-10T18:17:51.625Z,6.50
2017-11-10T18:19:54.334Z,6.50
2017-11-10T18:21:57.790Z,6.40
2017-11-10T18:24:00.467Z,6.40
2017-11-10T18:26:03.166Z,6.40
2017-11-10T18:28:05.956Z,6.40
2017-11-10T18:30:08.661Z,6.30
2017-11-10T18:32:11.355Z,6.40
2017-11-10T18:34:14.056Z,6.30
2017-11-10T18:36:16.807Z,6.30
2017-11-10T18:38:19.513Z,6.20
2017-11-10T18:40:22.275Z,6.20
2017-11-10T18:42:25.058Z,6.20
2017-11-10T18:44:27.815Z,6.00
2017-11-10T18:46:30.621Z,6.10
2017-11-10T18:48:34.296Z,6.10
2017-11-10T18:50:37.086Z,6.00
2017-11-10T18:52:39.803Z,6.10
2017-11-10T18:54:45.489Z,6.30
2017-11-10T18:56:48.279Z,6.30
2017-11-10T18:58:50.991Z,6.30
2017-11-10T19:00:53.701Z,6.20
2017-11-10T19:02:56.391Z,6.10
2017-11-10T19:04:59.114Z,6.10
2017-11-10T19:07:01.836Z,6.10
2017-11-10T19:09:05.461Z,6.10
2017-11-10T19:11:08.241Z,6.10
2017-11-10T19:13:10.906Z,6.10
2017-11-10T19:15:13.584Z,6.20
2017-11-10T19:17:17.400Z,6.30
2017-11-10T19:19:20.846Z,6.20
2017-11-10T19:21:23.531Z,6.30
2017-11-10T19:23:27.021Z,6.30
2017-11-10T19:25:30.117Z,6.20
2017-11-10T19:27:33.053Z,6.40
2017-11-10T19:29:35.959Z,6.50
2017-11-10T19:31:38.630Z,6.50
2017-11-10T19:33:41.308Z,6.40
2017-11-10T19:35:44.172Z,6.30
2017-11-10T19:37:46.856Z,6.30
2017-11-10T19:40:01.477Z,6.40
2017-11-10T19:42:04.166Z,6.50
2017-11-10T19:44:06.836Z,6.50
2017-11-10T19:46:09.522Z,6.60
2017-11-10T19:48:12.210Z,6.50
2017-11-10T19:50:16.088Z,6.60
2017-11-10T19:52:18.774Z,6.70
2017-11-10T19:54:21.541Z,6.70
2017-11-10T19:56:24.215Z,6.70
2017-11-10T19:58:27.073Z,6.80
2017-11-10T20:00:29.839Z,6.70
2017-11-10T20:02:33.466Z,6.50
2017-11-10T20:04:36.222Z,6.50
2017-11-10T20:06:39.680Z,6.30
2017-11-10T20:08:43.173Z,6.10
2017-11-10T20:10:45.889Z,6.00
2017-11-10T20:12:49.351Z,5.90
2017-11-10T20:14:52.017Z,5.90
2017-11-10T20:16:54.859Z,5.90
2017-11-10T20:18:57.710Z,5.90
2017-11-10T20:21:00.355Z,5.80
2017-11-10T20:23:03.506Z,5.70
2017-11-10T20:25:06.206Z,5.60
2017-11-10T20:27:09.455Z,5.60
2017-11-10T20:29:12.352Z,5.70
2017-11-10T20:31:16.498Z,5.60
2017-11-10T20:33:19.460Z,5.60
2017-11-10T20:35:22.312Z,5.50
2017-11-10T20:37:26.497Z,5.40
2017-11-10T20:39:29.461Z,5.40
2017-11-10T20:41:32.118Z,5.30
2017-11-10T20:43:34.808Z,5.20
2017-11-10T20:45:37.476Z,5.20
2017-11-10T20:47:40.167Z,5.30
2017-11-10T20:49:42.857Z,5.30
2017-11-10T20:51:45.717Z,5.30
2017-11-10T20:53:49.518Z,5.30
2017-11-10T20:55:57.452Z,5.40
2017-11-10T20:58:00.930Z,5.30
2017-11-10T21:00:03.678Z,5.30
2017-11-10T21:02:06.334Z,5.30
2017-11-10T21:04:09.779Z,5.20
2017-11-10T21:06:12.565Z,5.10
2017-11-10T21:08:15.741Z,5.20
2017-11-10T21:10:19.376Z,5.50
2017-11-10T21:12:22.304Z,5.50
2017-11-10T21:14:25.844Z,5.70
2017-11-10T21:16:28.777Z,5.80
2017-11-10T21:18:31.585Z,5.80
2017-11-10T21:20:34.351Z,6.00
2017-11-10T21:22:37.050Z,6.10
2017-11-10T21:24:39.809Z,6.00
2017-11-10T21:26:42.587Z,6.00
2017-11-10T21:28:45.310Z,6.00
2017-11-10T21:30:48.782Z,6.00
2017-11-10T21:32:51.451Z,6.00
2017-11-10T21:34:54.344Z,6.10
2017-11-10T21:36:57.070Z,6.00
2017-11-10T21:38:59.940Z,5.90
2017-11-10T21:41:03.799Z,5.80
2017-11-10T21:43:06.496Z,5.80
2017-11-10T21:45:09.949Z,5.70
2017-11-10T21:47:12.613Z,5.70
2017-11-10T21:49:15.334Z,5.70
2017-11-10T21:51:18.449Z,5.70
2017-11-10T21:53:22.054Z,5.50
2017-11-10T21:55:24.756Z,5.50
2017-11-10T21:57:27.541Z,5.40
2017-11-10T21:59:30.212Z,5.40
2017-11-10T22:01:32.892Z,5.40
2017-11-10T22:03:35.545Z,5.30
2017-11-10T22:05:38.223Z,5.20
2017-11-10T22:07:40.931Z,5.10
2017-11-10T22:09:43.601Z,5.00
2017-11-10T22:11:46.323Z,4.90
2017-11-10T22:13:49.977Z,4.90
2017-11-10T22:15:52.640Z,4.90
2017-11-10T22:17:55.517Z,4.90
2017-11-10T22:19:58.201Z,4.80
2017-11-10T22:22:00.887Z,4.80
2017-11-10T22:24:03.584Z,4.80
2017-11-10T22:26:06.300Z,4.70
2017-11-10T22:28:08.961Z,4.80
2017-11-10T22:30:12.428Z,4.80
2017-11-10T22:32:15.128Z,4.70
2017-11-10T22:34:17.784Z,4.70
2017-11-10T22:36:20.467Z,4.70
2017-11-10T22:38:23.166Z,4.70
2017-11-10T22:40:26.590Z,4.70
2017-11-10T22:42:29.388Z,4.70
2017-11-10T22:44:32.062Z,4.70
2017-11-10T22:46:34.710Z,4.70
2017-11-10T22:48:37.397Z,4.70
2017-11-10T22:50:40.199Z,4.70
2017-11-10T22:52:42.965Z,4.70
2017-11-10T22:54:45.651Z,4.70
2017-11-10T22:56:48.559Z,4.70
2017-11-10T22:58:51.237Z,4.60
2017-11-10T23:00:53.922Z,4.70
2017-11-10T23:02:56.615Z,4.70
2017-11-10T23:05:00.035Z,4.60
2017-11-10T23:07:02.714Z,4.60
2017-11-10T23:09:05.499Z,4.60
2017-11-10T23:11:08.175Z,4.50
2017-11-10T23:13:10.845Z,4.60
2017-11-10T23:15:13.565Z,4.60
2017-11-10T23:17:16.211Z,4.60
2017-11-10T23:19:18.981Z,4.60
2017-11-10T23:21:21.658Z,4.60
2017-11-10T23:23:24.312Z,4.60
2017-11-10T23:25:26.996Z,4.60
2017-11-10T23:27:29.678Z,4.60
2017-11-10T23:29:32.584Z,4.60
2017-11-10T23:31:37.370Z,4.60
2017-11-10T23:33:40.052Z,4.60
2017-11-10T23:35:42.710Z,4.70
2017-11-10T23:37:46.130Z,4.70
2017-11-10T23:39:48.833Z,4.70
2017-11-10T23:41:51.481Z,4.70
2017-11-10T23:43:54.135Z,4.80
2017-11-10T23:45:57.566Z,4.80
2017-11-10T23:48:00.233Z,4.80
2017-11-10T23:50:02.909Z,4.80
2017-11-10T23:52:05.619Z,4.80
2017-11-10T23:54:09.073Z,4.70
2017-11-10T23:56:11.725Z,4.70
2017-11-10T23:58:15.184Z,4.70
